Terminal Aerodrome Forecast
Issued by NWS Atlanta, GA

Home | Current Version | Previous Version | Text Only | Print | Product List | Glossary On
Versions: 1 2 3 4 5 6 7 8 9 10 11 12 13 14 15
000
FTUS42 KFFC 301129
TAFMCN
TAF
KMCN 301129Z 3012/3112 12005KT 4SM BR SCT070
      TEMPO 3012/3014 2SM BR
     FM301500 15007G14KT P6SM SCT040
     FM302200 17010G20KT P6SM VCSH BKN045
     FM310500 18006KT 5SM -SHRA BKN030 PROB30 3105/3109 VRB20G30KT
      3SM TSRA BKN020CB
     FM310900 22007KT P6SM VCSH BKN040=

USA.gov is the U.S. government's official web portal to all federal, state and local government web resources and services.